Terminal Aerodrome Forecast
Issued by NWS

Home | Current Version | Previous Version | Text Only | Print | Product List | Glossary On
Versions: 1 2 3 4 5 6 7 8 9 10
000
FTUS45 KRIW 260100 AAB
TAFCPR
TAF AMD
KCPR 260134Z 2602/2624 03010G20KT 4SM -SN SCT012 OVC040
      TEMPO 2602/2604 2SM -SN SCT012 OVC028
     FM260700 03008KT 5SM -SN SCT008 OVC025
     FM260900 04007KT P6SM VCSH OVC025
     FM261800 02010KT P6SM OVC035=

USA.gov is the U.S. government's official web portal to all federal, state and local government web resources and services.